This site, now in its 15th season, is a labour of love and fun from one of Ottawa's most avid time trialists and number crunchers. It adheres to and is permitted by the laws of Canada, promotes the objectives of every bicycle club whose results are shown, and is donated free of charge by myself for your enjoyment and usage. If you would like results from series you ride in to be shown here, give me (celia@drmath.ca) a shout!


Index Page
ATT OTT WTT AATT CFCTT VVVTT
Help resultformat:
Case-sensitive

OBC Open TT Series - 2010-May-20 - 15km (Rockliffe Pkwy) (EvtFactor = 0.9012)

Weather (18:00): Partly Cloudy. Temp.: 25C, Humidity: 46%, Dew Point: 13C, Wind: NNW 17km/h, Pressure: 101.4kPa, Vis: 24km, Humidex: 28.
Weather (19:00): Mainly Sunny. Temp.: 24C, Humidity: 47%, Dew Point: 12C, Wind: NNW 15km/h, Pressure: 101.4kPa, Vis: 24km, Humidex: 27.
Weather (20:00): Partly Cloudy. Temp.: 23C, Humidity: 49%, Dew Point: 11C, Wind: NE 15km/h, Pressure: 101.6kPa, Vis: 24km, Humidex: *.

Send photos with description (when/where/what) of yourself on or off of bike to celia@drmath.ca

Ninety-two riders came out to test themselves against the clock tonight. Fourteen have ridden all four OTT events thus far, with two of these - Nicolas Dery and Kari Ferlatte - improving every time out. Overall, 49 of 74 riders improved upon their 2010 OTT previous best (14 upped their cube speed by more than 10%), and 18 of 90 improved upon their previous databased best (6 by more than 10%). There were no all-time category bests tonight, but 7 riders set marks for the best speed so far this year of their category. In the highlighted column, you may see how you compare with the 2010 best thus far in your category.

These results were first posted on the OBC site circa 10:30 on 2010-May-22 and are available here for your added pleasure and analysis.

(Note that I'd gladly type in the results each time, getting the results up within a few of hours of the event, as I did for the WTT series for the decade beginning in 1998, and for the OTT series from 1999-2002 and again in 2006. Regardless, I will continue to donate this statistical time trial result service to you, even though doing so has, surprisingly, resulted in my EXPULSION from the OBC ! I guess I must at least thank the OBC executive for taking on the grunt work and leaving me to do just the more interesting side of my result service, but I do want to make it absolutely clear that I would gladly help the OBC Board input the results, lest complaints about me just lazily sucking in the results surface! The choice is theirs. If they want the help, I'm here and will do it - even if I remain expelled! Such is my level of dedication to public service and disinterest in private politics.)

 
 

BESTS?
 
1 Amos, Ron  OBC/RWR 19:35 45.957 1/92 VBM 1/13 1.0414
2 Nash, Michael  OBC/RWR 19:48 45.455 2/92 VBM 2/13  
3 van den Ham, Douglas  OBC/EMD 19:58 45.075 3/92 VAM 1/15 0.9508
4 Datars, Paul  OBC/RWR 20:06 44.776 4/92 VCM 1/21 1.0609
5 Martel, Brad RWR 20:14 44.481 5/92 VBM 3/13  
6 Schlatter, Sue  SRC 20:17 44.371 6/92 VBF 1/8 0.9901
7 Sudac, Rick  OBC/RWR 20:21 44.226 7/92 VDM 1/6 1.0373
8 Roth, Casey  RWR 20:25 44.082 8/92 SEM 1/7 0.9661
9 Sugden, David RDO 20:33 43.796 9/92 VBM 4/13 1.0495
10 Hamilton, Peter OBC 20:39 43.584 10/92 VBM 5/13 1.0171
11 Diaz, Rodrigo  OBC/EUR 20:43 43.443 11/92 VAM 2/15 0.9952
12 DeLuco, Matt EUR 20:45 43.373 12/92 SEM 2/7 0.9549
13 Ferguson, James OBC 20:46 43.339 13/92 VCM 2/21  
14 Katz, Joel  OBC/RWR 21:03 42.755 14/92 VCM 3/21  
15 Budgell, Glen  OBC 21:09 42.553 15/92 VCM 4/21 1.1383
16 Orange, Robert RWR 21:16 42.320 16/92 VBM 6/13 1.0821
17 Tregunno, Peter  OBC 21:26 41.991 17/92 VAM 3/15 1.0235
18 Campbell, Colin  OBC 21:35 41.699 18/92 VCM 5/21 0.9862
19 Matte, Sophie  SRC 21:38 41.602 19/92 VAF 1/7 1.0046
20 Campbell, Greg OBC 21:40 41.538 20/92 VAM 4/15 1.0209
21 Voyer, Christian OBC 21:41 41.507 21/92 VAM 5/15 1.0326
22 Christie, Greg  OBC/RWR 21:42 41.475 22/92 VCM 6/21 1.0853
Nelson, Cynthia  RWR 21:42 41.475 22/92 VAF 2/7 0.9932
24 Armstrong, Brian OBC 21:49 41.253 24/92 VBM 7/13 1.0466
Mullington, Chris WQW 21:49 41.253 24/92 VCM 7/21 0.9683
26 Michel, Alexandre  WQW 21:51 41.190 26/92 VAM 6/15 0.9954
27 McKay, Allison  OBC/RDO 21:53 41.127 27/92 VBF 2/8  
28 Labelle, Marc-Antoine OBC 21:55 41.065 28/92 JUM 1/2  
29 Lapointe, Marc --- 21:57 41.002 29/92 VAM 7/15 0.9159
30 Cameron, Allen  OBC/RWR 22:00 40.909 30/92 VCM 8/21 0.9641
31 Farish, Neil  OBC/RWR 22:04 40.785 31/92 VCM 9/21 0.9553
32 Konov, Sergei OBC 22:05 40.755 32/92 VAM 8/15 1.0159
33 Hess, Detlef OBC 22:13 40.510 33/92 VCM 10/21 1.1168
34 Brunet, Chris CYC 22:19 40.329 34/92 SEM 3/7 1.0409
35 Conn, Peter RWR 22:22 40.238 35/92 VBM 8/13  
36 Posthuma, Hans  OBC 22:25 40.149 36/92 VCM 11/21 1.0202
37 Gagnon, Alexandre  OBC 22:32 39.941 37/92 SEM 4/7 0.9585
Kerckhoff, Hermann  RWR 22:32 39.941 37/92 VEM 1/1 1.0450
Till, Michael WQW 22:32 39.941 37/92 VCM 12/21 1.2259
40 Padilla, Alberto --- 22:35 39.852 40/92 VCM 13/21  
Trafford, Brian OBC 22:35 39.852 40/92 JUM 2/2 0.9224
42 Diotte, Daniel OBC 22:38 39.764 42/92 VBM 9/13 0.9543
43 Martinez-Arroyu, Cid --- 22:45 39.560 43/92 VAM 9/15 1.0582
Robitaille, Brian  OBC 22:45 39.560 43/92 VBM 10/13 1.0858
45 Forcese, Craig OBC 22:46 39.531 45/92 VBM 11/13 1.0177
46 Schuck, Peter  OBC 22:52 39.359 46/92 VCM 14/21 1.0377
47 McKay, Andrea  OBC 22:58 39.187 47/92 VBF 3/8  
48 Schattmann, Peter OBC 23:00 39.130 48/92 VCM 15/21 1.0553
49 Dorego, Jean-Louis OBC 23:02 39.074 49/92 VCM 16/21 1.0575
50 Moy, Andrew OBC 23:06 38.961 50/92 VAM 10/15 0.9448
51 Moerman, Bram  OBC 23:07 38.933 51/92 VDM 2/6 1.0022
52 Aspenlieder, Iain --- 23:20 38.571 52/92 VAM 11/15 0.9269
53 Blagdon, Wendy  CYC 23:23 38.489 53/92 VBF 4/8 1.1432
54 Burge, Larry  OBC 23:37 38.109 54/92 VBM 12/13 1.0408
55 Maley, Shane OBC 23:43 37.948 55/92 SEM 5/7 1.0934
56 Leboeuf, Maxime OBC 23:48 37.815 56/92 CAM 1/3 0.9812
57 Couturier-Lamy, Felix OBC 23:50 37.762 57/92 CAM 2/3 1.0555
58 De Haitre, Vincent OBC 24:00 37.500 58/92 CAM 3/3  
59 Boulanger, Gaetan  OBC 24:08 37.293 59/92 VDM 3/6 0.9611
Deavy, Carol  OBC 24:08 37.293 59/92 VBF 5/8 1.0895
61 Coudé, Martin EUR 24:11 37.216 61/92 SEM 6/7  
Momtahan, Parham  OBC 24:11 37.216 61/92 VCM 17/21  
63 Hayes, James OBC 24:14 37.139 63/92 SEM 7/7 1.3551
64 Imbrogno, Giorgio  OBC 24:27 36.810 64/92 VDM 4/6 1.0648
Nesdoly, Nina  OBC 24:27 36.810 64/92 JUF 1/2 1.0144
66 Déry, Nicolas  OBC 24:40 36.486 66/92 VAM 12/15 1.1711
Simard, Martin OBC 24:40 36.486 66/92 VCM 18/21 1.1621
68 Samborsky, Mark OBC 24:41 36.462 68/92 VBM 13/13 1.1309
69 Wolfson, Naomi Lynne OBC 24:48 36.290 69/92 SEF 1/1  
70 Desjardins, Marcel OBC 24:51 36.217 70/92 VDM 5/6 1.1062
71 McInnis, Celia  ABC/CYF 25:10 35.762 71/92 VCF 1/5 0.9902
72 Datars, Sally OBC 25:11 35.738 72/92 VBF 6/8  
Dionne, Suzanne  OBC 25:11 35.738 72/92 VCF 2/5 1.0942
74 Appotive, Eric OBC 25:23 35.456 74/92 VCM 19/21 1.1122
75 Konantz, Patricia  OBC/RWR 25:34 35.202 75/92 VCF 3/5 0.9633
76 Bean, Camille OBC 25:41 35.042 76/92 JUF 2/2  
77 Ferlatte, Kari  FC 25:44 34.974 77/92 VAF 3/7 1.0314
78 Rees, Stephanie  OBC 25:45 34.951 78/92 VAF 4/7 1.0493
79 Bonhomme, Ariane OBC 25:52 34.794 79/92 CAF 1/1 1.0058
80 Liechti, Hans-Peter OBC 26:04 34.527 80/92 VCM 20/21 1.1238
81 Dal-Cin, Mauro EUR 26:08 34.439 81/92 VCM 21/21 1.3131
82 Hsiao, Libby OBC 26:21 34.156 82/92 VAM 13/15 1.1060
83 McLaren, Louise  OBC 27:30 32.727 83/92 VBF 7/8 0.9412
84 Jardine, Karen  OBC 27:32 32.688 84/92 VCF 4/5 1.0202
85 Schwartz, Kimberley OBC 27:36 32.609 85/92 VAF 5/7 0.9572
86 Stoneham, Ron OBC 28:24 31.690 86/92 VDM 6/6  
87 Boudreau, Lucie  OBC 28:31 31.560 87/92 VCF 5/5  
88 Boutin, Louise  OBC 28:52 31.178 88/92 VAF 6/7 1.0984
89 Nowoselski, Shiree  OBC 29:19 30.699 89/92 VBF 8/8  
90 Johnson, Laura  OBC/CYF 30:03 29.950 90/92 VAF 7/7 0.8895
91 LeBrun, Robert OBC 33:00 27.273 91/92 VAM 14/15 1.2067
92 Bourque, Timothy OBC 41:13 21.836 92/92 VAM 15/15 0.3429
 
Average Speed of all of the above 92 finishes (1380km in 36:16:40):38.040
>>>Average of the Average Speeds for these 92 finishes38.575<<<
 

The number of data records shown above is 92
The server processing of your query took: 1 wallclock secs ( 0.10 usr + 0.00 sys = 0.10 CPU)

Thanks to our Helpers: Avery Burdett, Matteo Dal-Cin, Andrew Davy, Carol Deavy, Leona Gray, Gunter Hauschildt, Alex McKnight.

     


Apr 2 (Good Friday)
May 4 (10km) May 6 May 11 (10km) May 13 May 18 May 18 (10km)
  May 20  
May 25 May 25 (10km) May 27 May 30 (40km) May 31 (10km)
Jun 1 Jun 1 Jun 3 Jun 8 Jun 8 Jun 10 Jun 14 (10km) Jun 15 Jun 15 Jun 17 Jun 22 (rained out) Jun 22 Jun 24 Jun 28 (10km) Jun 29 Jun 29
Jul 4 (40km) Jul 6 Jul 6 Jul 8 Jul 12 Jul 13 Jul 13 Jul 15 Jul 20 Jul 20 Jul 22 Jul 26 Jul 27 Jul 27 Jul 29
Aug 3 ((cancelled)) Aug 3 Aug 5 Aug 8 (40km) Aug 10 Aug 10 Aug 12 Aug 15 (40km) Aug 17 Aug 17 Aug 19 Aug 23 Aug 24 Aug 24 Aug 26 Aug 31 Aug 31 (Invitational)
Sep 2 Sep 7 Sep 9 Sep 12 (40km) Sep 14 Sep 19 (40km) Sep 21 Sep 28

OTT Rankings
Best       Best by category
WTT Rankings for All Participants
4 Best Speeds (≥3 15km, ≤1 10km)     4 Best Speeds (≥3 15km, ≤1 10km) by category
OTT Best Three 15km Rankings
Overall     by category     age-Hcap Female   age-Hcap Male
[OWA]TT BAR Ranking
Overall     by category     Rider "Consistency-Graph"
ABC BAR Ranking
Overall     by category     Rider "Consistency-Graph"
Other years
TT Calculator All TT People All TT events
ABC Home VVV Home
CKAP GOLD MEDAL
Other Links

Note: OTT data from 2003 through 2006-Apr-14 and 2007-Apr-06-? and WTT from 2008-? is taken from the official OBC site.

Please send your comments and suggestions to: Celia McInnis
Copyright © 1998-2011 Celia McInnis. All rights reserved. Links are welcomed.